sensor_id;sensor_type;location;lat;lon;timestamp;pressure;altitude;pressure_sealevel;temperature;humidity
7586;BME280;12459;42.646;23.292;2023-03-16T00:10:22;92835.66;;;4.54;100.00
7586;BME280;12459;42.646;23.292;2023-03-16T00:25:28;92692.66;;;3.50;100.00
7586;BME280;12459;42.646;23.292;2023-03-16T00:40:30;92594.38;;;2.84;100.00
7586;BME280;12459;42.646;23.292;2023-03-16T00:55:34;92598.13;;;2.76;100.00
7586;BME280;12459;42.646;23.292;2023-03-16T01:10:36;92736.16;;;3.46;100.00
7586;BME280;12459;42.646;23.292;2023-03-16T01:25:37;92660.88;;;2.76;100.00
7586;BME280;12459;42.646;23.292;2023-03-16T01:40:39;92724.38;;;2.90;100.00
7586;BME280;12459;42.646;23.292;2023-03-16T01:55:41;92890.94;;;3.77;100.00
7586;BME280;12459;42.646;23.292;2023-03-16T02:10:43;92632.03;;;2.14;100.00
7586;BME280;12459;42.646;23.292;2023-03-16T02:40:56;92725.78;;;2.55;100.00
7586;BME280;12459;42.646;23.292;2023-03-16T02:55:58;92458.34;;;0.19;100.00
7586;BME280;12459;42.646;23.292;2023-03-16T03:11:00;92804.03;;;2.64;100.00
7586;BME280;12459;42.646;23.292;2023-03-16T03:26:02;92814.16;;;2.51;100.00
7586;BME280;12459;42.646;23.292;2023-03-16T03:41:05;92658.06;;;1.39;100.00
7586;BME280;12459;42.646;23.292;2023-03-16T03:56:10;92947.31;;;2.83;100.00
7586;BME280;12459;42.646;23.292;2023-03-16T04:11:11;92986.75;;;3.03;100.00
7586;BME280;12459;42.646;23.292;2023-03-16T04:26:13;93042.97;;;3.47;100.00
7586;BME280;12459;42.646;23.292;2023-03-16T04:41:15;92898.31;;;1.90;100.00
7586;BME280;12459;42.646;23.292;2023-03-16T04:56:17;93086.88;;;3.52;100.00
7586;BME280;12459;42.646;23.292;2023-03-16T05:11:19;93011.28;;;2.45;100.00
7586;BME280;12459;42.646;23.292;2023-03-16T05:26:21;93054.03;;;3.05;100.00
7586;BME280;12459;42.646;23.292;2023-03-16T05:41:23;92914.94;;;1.95;100.00
7586;BME280;12459;42.646;23.292;2023-03-16T05:56:26;93039.59;;;2.44;100.00
7586;BME280;12459;42.646;23.292;2023-03-16T06:11:28;92910.13;;;1.63;100.00
7586;BME280;12459;42.646;23.292;2023-03-16T06:26:30;92956.94;;;1.66;100.00
7586;BME280;12459;42.646;23.292;2023-03-16T06:41:32;93006.50;;;2.17;100.00
7586;BME280;12459;42.646;23.292;2023-03-16T06:56:36;92989.63;;;1.91;100.00
7586;BME280;12459;42.646;23.292;2023-03-16T07:11:38;93191.81;;;3.19;100.00
7586;BME280;12459;42.646;23.292;2023-03-16T07:26:40;93232.16;;;3.09;100.00
7586;BME280;12459;42.646;23.292;2023-03-16T08:08:58;93285.47;;;3.93;100.00
7586;BME280;12459;42.646;23.292;2023-03-16T08:24:00;93010.22;;;2.09;100.00
7586;BME280;12459;42.646;23.292;2023-03-16T08:39:05;93168.47;;;3.32;100.00
7586;BME280;12459;42.646;23.292;2023-03-16T08:54:08;93222.34;;;3.54;100.00
7586;BME280;12459;42.646;23.292;2023-03-16T09:09:10;93034.03;;;2.56;100.00
7586;BME280;12459;42.646;23.292;2023-03-16T09:24:12;93111.38;;;2.87;100.00
7586;BME280;12459;42.646;23.292;2023-03-16T09:39:14;93357.97;;;4.69;100.00
7586;BME280;12459;42.646;23.292;2023-03-16T10:09:30;93348.09;;;4.66;100.00
7586;BME280;12459;42.646;23.292;2023-03-16T10:40:06;93262.56;;;3.67;100.00
7586;BME280;12459;42.646;23.292;2023-03-16T10:55:16;93114.28;;;3.19;100.00
7586;BME280;12459;42.646;23.292;2023-03-16T11:10:27;92957.59;;;1.97;100.00
7586;BME280;12459;42.646;23.292;2023-03-16T11:25:38;93308.66;;;4.65;100.00
7586;BME280;12459;42.646;23.292;2023-03-16T11:56:02;93347.41;;;4.76;100.00
7586;BME280;12459;42.646;23.292;2023-03-16T12:11:10;93356.31;;;4.47;100.00
7586;BME280;12459;42.646;23.292;2023-03-16T12:26:17;93369.25;;;4.56;100.00
7586;BME280;12459;42.646;23.292;2023-03-16T12:56:51;93410.59;;;4.57;100.00
7586;BME280;12459;42.646;23.292;2023-03-16T13:11:54;93337.81;;;4.03;100.00
7586;BME280;12459;42.646;23.292;2023-03-16T13:27:03;93326.88;;;3.64;100.00
7586;BME280;12459;42.646;23.292;2023-03-16T13:57:10;92793.81;;;0.38;100.00
7586;BME280;12459;42.646;23.292;2023-03-16T14:12:13;93463.97;;;5.03;100.00
7586;BME280;12459;42.646;23.292;2023-03-16T14:42:20;93334.28;;;3.47;100.00
7586;BME280;12459;42.646;23.292;2023-03-16T14:57:28;93267.19;;;2.96;100.00
7586;BME280;12459;42.646;23.292;2023-03-16T15:12:29;93304.44;;;3.13;100.00
7586;BME280;12459;42.646;23.292;2023-03-16T15:27:34;93530.66;;;4.46;100.00
7586;BME280;12459;42.646;23.292;2023-03-16T15:42:36;93462.66;;;3.57;100.00
7586;BME280;12459;42.646;23.292;2023-03-16T15:57:37;93307.53;;;2.55;100.00
7586;BME280;12459;42.646;23.292;2023-03-16T16:12:39;93392.91;;;3.12;100.00
7586;BME280;12459;42.646;23.292;2023-03-16T16:27:41;93261.50;;;2.04;100.00
7586;BME280;12459;42.646;23.292;2023-03-16T16:42:44;93611.53;;;4.26;100.00
7586;BME280;12459;42.646;23.292;2023-03-16T16:57:47;93593.09;;;4.07;100.00
7586;BME280;12459;42.646;23.292;2023-03-16T17:12:51;93428.50;;;2.62;100.00
7586;BME280;12459;42.646;23.292;2023-03-16T17:27:54;93308.97;;;1.97;100.00
7586;BME280;12459;42.646;23.292;2023-03-16T17:42:57;93586.09;;;3.92;100.00
7586;BME280;12459;42.646;23.292;2023-03-16T17:57:59;93520.22;;;3.30;100.00
7586;BME280;12459;42.646;23.292;2023-03-16T18:13:04;93467.16;;;2.44;100.00
7586;BME280;12459;42.646;23.292;2023-03-16T18:28:08;93683.94;;;4.30;100.00
7586;BME280;12459;42.646;23.292;2023-03-16T18:43:13;93593.59;;;3.30;100.00
7586;BME280;12459;42.646;23.292;2023-03-16T18:58:18;93698.28;;;3.99;100.00
7586;BME280;12459;42.646;23.292;2023-03-16T19:13:22;93629.50;;;3.53;100.00
7586;BME280;12459;42.646;23.292;2023-03-16T19:28:28;93542.28;;;2.88;100.00
7586;BME280;12459;42.646;23.292;2023-03-16T19:43:34;93436.00;;;1.88;100.00
7586;BME280;12459;42.646;23.292;2023-03-16T19:58:36;93641.19;;;3.26;100.00
7586;BME280;12459;42.646;23.292;2023-03-16T20:13:44;93736.16;;;4.00;100.00
7586;BME280;12459;42.646;23.292;2023-03-16T20:28:47;93486.09;;;2.04;100.00
7586;BME280;12459;42.646;23.292;2023-03-16T20:43:50;93735.69;;;3.68;100.00
7586;BME280;12459;42.646;23.292;2023-03-16T20:58:52;93751.97;;;3.93;100.00
7586;BME280;12459;42.646;23.292;2023-03-16T21:13:56;93526.84;;;1.83;100.00
7586;BME280;12459;42.646;23.292;2023-03-16T21:29:02;93774.59;;;3.87;100.00
7586;BME280;12459;42.646;23.292;2023-03-16T21:44:07;93767.94;;;3.50;100.00
7586;BME280;12459;42.646;23.292;2023-03-16T21:59:09;93635.13;;;2.80;100.00
7586;BME280;12459;42.646;23.292;2023-03-16T22:14:11;93834.38;;;3.84;100.00
7586;BME280;12459;42.646;23.292;2023-03-16T22:29:42;93688.53;;;3.08;100.00
7586;BME280;12459;42.646;23.292;2023-03-16T22:44:45;93436.69;;;1.43;100.00
7586;BME280;12459;42.646;23.292;2023-03-16T22:59:47;93767.53;;;3.26;100.00
7586;BME280;12459;42.646;23.292;2023-03-16T23:14:50;93769.94;;;3.34;100.00
7586;BME280;12459;42.646;23.292;2023-03-16T23:29:52;93632.97;;;2.24;100.00
7586;BME280;12459;42.646;23.292;2023-03-16T23:44:54;93747.44;;;2.82;100.00
7586;BME280;12459;42.646;23.292;2023-03-16T23:59:56;93661.22;;;2.39;100.00
